sensor_id;sensor_type;location;lat;lon;timestamp;pressure;altitude;pressure_sealevel;temperature;humidity
11114;BME280;5610;52.154;9.198;2024-02-26T00:02:09;99360.69;;;3.44;100.00
11114;BME280;5610;52.154;9.198;2024-02-26T00:04:53;99359.94;;;3.42;100.00
11114;BME280;5610;52.154;9.198;2024-02-26T00:07:39;99355.06;;;3.35;100.00
11114;BME280;5610;52.154;9.198;2024-02-26T00:10:24;99359.31;;;3.37;100.00
11114;BME280;5610;52.154;9.198;2024-02-26T00:13:10;99350.44;;;3.40;100.00
11114;BME280;5610;52.154;9.198;2024-02-26T00:15:56;99349.16;;;3.47;100.00
11114;BME280;5610;52.154;9.198;2024-02-26T00:18:41;99348.84;;;3.53;100.00
11114;BME280;5610;52.154;9.198;2024-02-26T00:21:26;99351.81;;;3.63;100.00
11114;BME280;5610;52.154;9.198;2024-02-26T00:24:11;99349.53;;;3.72;100.00
11114;BME280;5610;52.154;9.198;2024-02-26T00:26:57;99343.53;;;3.86;100.00
11114;BME280;5610;52.154;9.198;2024-02-26T00:29:43;99342.34;;;4.07;100.00
11114;BME280;5610;52.154;9.198;2024-02-26T00:32:28;99342.34;;;4.23;100.00
11114;BME280;5610;52.154;9.198;2024-02-26T00:35:13;99340.78;;;4.35;100.00
11114;BME280;5610;52.154;9.198;2024-02-26T00:37:59;99341.47;;;4.38;100.00
11114;BME280;5610;52.154;9.198;2024-02-26T00:40:45;99346.41;;;4.29;100.00
11114;BME280;5610;52.154;9.198;2024-02-26T00:43:31;99346.00;;;4.21;100.00
11114;BME280;5610;52.154;9.198;2024-02-26T00:46:17;99341.91;;;4.15;100.00
11114;BME280;5610;52.154;9.198;2024-02-26T00:49:03;99335.28;;;4.08;100.00
11114;BME280;5610;52.154;9.198;2024-02-26T00:51:48;99338.19;;;4.03;100.00
11114;BME280;5610;52.154;9.198;2024-02-26T00:54:33;99335.88;;;3.97;100.00
11114;BME280;5610;52.154;9.198;2024-02-26T00:57:18;99334.69;;;3.87;100.00
11114;BME280;5610;52.154;9.198;2024-02-26T01:00:04;99340.97;;;3.84;100.00
11114;BME280;5610;52.154;9.198;2024-02-26T01:02:52;99344.47;;;3.85;100.00
11114;BME280;5610;52.154;9.198;2024-02-26T01:05:37;99344.03;;;3.77;100.00
11114;BME280;5610;52.154;9.198;2024-02-26T01:08:23;99346.56;;;3.78;100.00
11114;BME280;5610;52.154;9.198;2024-02-26T01:11:08;99341.41;;;3.77;100.00
11114;BME280;5610;52.154;9.198;2024-02-26T01:13:53;99335.28;;;3.76;100.00
11114;BME280;5610;52.154;9.198;2024-02-26T01:16:40;99336.38;;;3.72;100.00
11114;BME280;5610;52.154;9.198;2024-02-26T01:19:26;99340.88;;;3.70;100.00
11114;BME280;5610;52.154;9.198;2024-02-26T01:22:12;99332.31;;;3.67;100.00
11114;BME280;5610;52.154;9.198;2024-02-26T01:24:57;99334.25;;;3.63;100.00
11114;BME280;5610;52.154;9.198;2024-02-26T01:27:42;99328.97;;;3.63;100.00
11114;BME280;5610;52.154;9.198;2024-02-26T01:30:28;99332.03;;;3.55;100.00
11114;BME280;5610;52.154;9.198;2024-02-26T01:33:13;99335.31;;;3.59;100.00
11114;BME280;5610;52.154;9.198;2024-02-26T01:35:59;99335.31;;;3.59;100.00
11114;BME280;5610;52.154;9.198;2024-02-26T01:38:45;99337.09;;;3.58;100.00
11114;BME280;5610;52.154;9.198;2024-02-26T01:41:30;99328.34;;;3.58;100.00
11114;BME280;5610;52.154;9.198;2024-02-26T01:44:15;99324.31;;;3.52;100.00
11114;BME280;5610;52.154;9.198;2024-02-26T01:47:01;99328.78;;;3.50;100.00
11114;BME280;5610;52.154;9.198;2024-02-26T01:49:47;99325.38;;;3.48;100.00
11114;BME280;5610;52.154;9.198;2024-02-26T01:52:33;99334.44;;;3.43;100.00
11114;BME280;5610;52.154;9.198;2024-02-26T01:55:19;99332.88;;;3.23;100.00
11114;BME280;5610;52.154;9.198;2024-02-26T01:58:05;99326.94;;;3.19;100.00
11114;BME280;5610;52.154;9.198;2024-02-26T02:00:51;99322.09;;;3.27;100.00
11114;BME280;5610;52.154;9.198;2024-02-26T02:03:36;99323.47;;;3.35;100.00
11114;BME280;5610;52.154;9.198;2024-02-26T02:06:22;99324.16;;;3.38;100.00
11114;BME280;5610;52.154;9.198;2024-02-26T02:09:08;99313.56;;;3.40;100.00
11114;BME280;5610;52.154;9.198;2024-02-26T02:11:54;99324.00;;;3.41;100.00
11114;BME280;5610;52.154;9.198;2024-02-26T02:14:40;99321.28;;;3.43;100.00
11114;BME280;5610;52.154;9.198;2024-02-26T02:17:25;99316.88;;;3.43;100.00
11114;BME280;5610;52.154;9.198;2024-02-26T02:20:15;99319.59;;;3.42;100.00
11114;BME280;5610;52.154;9.198;2024-02-26T02:23:02;99313.25;;;3.46;100.00
11114;BME280;5610;52.154;9.198;2024-02-26T02:25:48;99301.78;;;3.47;100.00
11114;BME280;5610;52.154;9.198;2024-02-26T02:28:33;99298.28;;;3.46;100.00
11114;BME280;5610;52.154;9.198;2024-02-26T02:31:19;99306.25;;;3.45;100.00
11114;BME280;5610;52.154;9.198;2024-02-26T02:34:04;99306.00;;;3.49;100.00
11114;BME280;5610;52.154;9.198;2024-02-26T02:36:51;99308.31;;;3.40;100.00
11114;BME280;5610;52.154;9.198;2024-02-26T02:39:38;99315.78;;;3.47;100.00
11114;BME280;5610;52.154;9.198;2024-02-26T02:42:23;99315.09;;;3.44;100.00
11114;BME280;5610;52.154;9.198;2024-02-26T02:45:09;99317.72;;;3.44;100.00
11114;BME280;5610;52.154;9.198;2024-02-26T02:47:54;99326.56;;;3.43;100.00
11114;BME280;5610;52.154;9.198;2024-02-26T02:50:39;99322.97;;;3.44;100.00
11114;BME280;5610;52.154;9.198;2024-02-26T02:53:24;99320.63;;;3.39;100.00
11114;BME280;5610;52.154;9.198;2024-02-26T02:56:11;99322.03;;;3.45;100.00
11114;BME280;5610;52.154;9.198;2024-02-26T02:58:56;99325.91;;;3.55;100.00
11114;BME280;5610;52.154;9.198;2024-02-26T03:01:41;99321.06;;;3.79;100.00
11114;BME280;5610;52.154;9.198;2024-02-26T03:04:26;99320.31;;;4.08;100.00
11114;BME280;5610;52.154;9.198;2024-02-26T03:07:13;99324.72;;;4.39;100.00
11114;BME280;5610;52.154;9.198;2024-02-26T03:09:58;99319.25;;;4.58;100.00
11114;BME280;5610;52.154;9.198;2024-02-26T03:12:45;99317.44;;;4.89;100.00
11114;BME280;5610;52.154;9.198;2024-02-26T03:15:30;99334.25;;;5.02;100.00
11114;BME280;5610;52.154;9.198;2024-02-26T03:18:16;99331.06;;;5.26;100.00
11114;BME280;5610;52.154;9.198;2024-02-26T03:21:01;99331.53;;;5.32;100.00
11114;BME280;5610;52.154;9.198;2024-02-26T03:23:46;99326.34;;;5.45;100.00
11114;BME280;5610;52.154;9.198;2024-02-26T03:26:31;99329.75;;;5.47;100.00
11114;BME280;5610;52.154;9.198;2024-02-26T03:29:18;99343.69;;;5.49;100.00
11114;BME280;5610;52.154;9.198;2024-02-26T03:32:04;99330.13;;;5.41;100.00
11114;BME280;5610;52.154;9.198;2024-02-26T03:34:50;99328.06;;;5.46;100.00
11114;BME280;5610;52.154;9.198;2024-02-26T03:37:37;99330.03;;;5.42;100.00
11114;BME280;5610;52.154;9.198;2024-02-26T03:40:22;99333.06;;;5.36;100.00
11114;BME280;5610;52.154;9.198;2024-02-26T03:43:08;99331.91;;;5.26;100.00
11114;BME280;5610;52.154;9.198;2024-02-26T03:45:54;99340.03;;;5.37;100.00
11114;BME280;5610;52.154;9.198;2024-02-26T03:48:39;99337.03;;;5.43;100.00
11114;BME280;5610;52.154;9.198;2024-02-26T03:51:25;99334.28;;;5.59;100.00
11114;BME280;5610;52.154;9.198;2024-02-26T03:54:10;99332.47;;;5.74;100.00
11114;BME280;5610;52.154;9.198;2024-02-26T03:56:55;99332.75;;;5.69;100.00
11114;BME280;5610;52.154;9.198;2024-02-26T03:59:40;99337.19;;;5.83;100.00
11114;BME280;5610;52.154;9.198;2024-02-26T04:02:27;99341.81;;;5.79;100.00
11114;BME280;5610;52.154;9.198;2024-02-26T04:05:13;99339.94;;;5.82;100.00
11114;BME280;5610;52.154;9.198;2024-02-26T04:07:58;99337.56;;;5.91;100.00
11114;BME280;5610;52.154;9.198;2024-02-26T04:10:43;99342.59;;;5.96;100.00
11114;BME280;5610;52.154;9.198;2024-02-26T04:13:28;99352.56;;;6.05;100.00
11114;BME280;5610;52.154;9.198;2024-02-26T04:16:13;99347.28;;;6.05;100.00
11114;BME280;5610;52.154;9.198;2024-02-26T04:19:00;99346.50;;;6.17;100.00
11114;BME280;5610;52.154;9.198;2024-02-26T04:21:45;99344.22;;;6.25;100.00
11114;BME280;5610;52.154;9.198;2024-02-26T04:24:31;99348.06;;;6.34;100.00
11114;BME280;5610;52.154;9.198;2024-02-26T04:27:16;99350.63;;;6.36;100.00
11114;BME280;5610;52.154;9.198;2024-02-26T04:30:01;99350.69;;;6.34;100.00
11114;BME280;5610;52.154;9.198;2024-02-26T04:32:48;99355.91;;;6.36;100.00
11114;BME280;5610;52.154;9.198;2024-02-26T04:35:34;99357.00;;;6.46;100.00
11114;BME280;5610;52.154;9.198;2024-02-26T04:38:19;99361.22;;;6.48;100.00
11114;BME280;5610;52.154;9.198;2024-02-26T04:41:06;99351.31;;;6.52;100.00
11114;BME280;5610;52.154;9.198;2024-02-26T04:43:51;99354.28;;;6.60;100.00
11114;BME280;5610;52.154;9.198;2024-02-26T04:46:36;99356.22;;;6.58;100.00
11114;BME280;5610;52.154;9.198;2024-02-26T04:49:21;99366.78;;;6.58;100.00
11114;BME280;5610;52.154;9.198;2024-02-26T04:52:08;99368.28;;;6.62;100.00
11114;BME280;5610;52.154;9.198;2024-02-26T04:54:53;99365.84;;;6.59;100.00
11114;BME280;5610;52.154;9.198;2024-02-26T04:57:39;99365.63;;;6.62;100.00
11114;BME280;5610;52.154;9.198;2024-02-26T05:00:24;99367.44;;;6.61;100.00
11114;BME280;5610;52.154;9.198;2024-02-26T05:03:09;99372.72;;;6.61;100.00
11114;BME280;5610;52.154;9.198;2024-02-26T05:05:57;99375.38;;;6.61;100.00
11114;BME280;5610;52.154;9.198;2024-02-26T05:08:44;99372.38;;;6.53;100.00
11114;BME280;5610;52.154;9.198;2024-02-26T05:11:29;99361.94;;;6.38;100.00
11114;BME280;5610;52.154;9.198;2024-02-26T05:14:14;99370.50;;;6.14;100.00
11114;BME280;5610;52.154;9.198;2024-02-26T05:16:59;99375.25;;;6.09;100.00
11114;BME280;5610;52.154;9.198;2024-02-26T05:19:45;99377.00;;;6.23;100.00
11114;BME280;5610;52.154;9.198;2024-02-26T05:22:30;99375.66;;;6.30;100.00
11114;BME280;5610;52.154;9.198;2024-02-26T05:25:17;99374.44;;;6.36;100.00
11114;BME280;5610;52.154;9.198;2024-02-26T05:28:02;99374.34;;;6.23;100.00
11114;BME280;5610;52.154;9.198;2024-02-26T05:30:47;99368.00;;;6.25;100.00
11114;BME280;5610;52.154;9.198;2024-02-26T05:33:32;99369.44;;;6.31;100.00
11114;BME280;5610;52.154;9.198;2024-02-26T05:36:18;99388.47;;;6.50;100.00
11114;BME280;5610;52.154;9.198;2024-02-26T05:39:05;99375.88;;;6.54;100.00
11114;BME280;5610;52.154;9.198;2024-02-26T05:41:52;99387.75;;;6.61;100.00
11114;BME280;5610;52.154;9.198;2024-02-26T05:44:37;99378.22;;;6.58;100.00
11114;BME280;5610;52.154;9.198;2024-02-26T05:47:22;99380.53;;;6.77;100.00
11114;BME280;5610;52.154;9.198;2024-02-26T05:50:08;99387.63;;;6.77;100.00
11114;BME280;5610;52.154;9.198;2024-02-26T05:52:54;99388.81;;;6.85;100.00
11114;BME280;5610;52.154;9.198;2024-02-26T05:55:39;99393.19;;;6.99;100.00
11114;BME280;5610;52.154;9.198;2024-02-26T05:58:26;99391.91;;;6.92;100.00
11114;BME280;5610;52.154;9.198;2024-02-26T06:01:11;99396.78;;;6.98;100.00
11114;BME280;5610;52.154;9.198;2024-02-26T06:03:56;99409.25;;;6.96;100.00
11114;BME280;5610;52.154;9.198;2024-02-26T06:06:42;99412.00;;;6.95;100.00
11114;BME280;5610;52.154;9.198;2024-02-26T06:09:27;99426.94;;;6.96;100.00
11114;BME280;5610;52.154;9.198;2024-02-26T06:12:12;99427.44;;;6.88;100.00
11114;BME280;5610;52.154;9.198;2024-02-26T06:14:58;99430.31;;;6.85;100.00
11114;BME280;5610;52.154;9.198;2024-02-26T06:17:44;99436.97;;;6.78;100.00
11114;BME280;5610;52.154;9.198;2024-02-26T06:20:29;99443.28;;;6.75;100.00
11114;BME280;5610;52.154;9.198;2024-02-26T06:23:14;99445.47;;;6.69;100.00
11114;BME280;5610;52.154;9.198;2024-02-26T06:26:00;99452.56;;;6.68;100.00
11114;BME280;5610;52.154;9.198;2024-02-26T06:28:45;99456.34;;;6.78;100.00
11114;BME280;5610;52.154;9.198;2024-02-26T06:31:31;99448.41;;;6.78;100.00
11114;BME280;5610;52.154;9.198;2024-02-26T06:34:17;99450.94;;;6.80;100.00
11114;BME280;5610;52.154;9.198;2024-02-26T06:37:02;99464.47;;;6.75;100.00
11114;BME280;5610;52.154;9.198;2024-02-26T06:39:47;99465.53;;;6.73;100.00
11114;BME280;5610;52.154;9.198;2024-02-26T06:42:32;99465.97;;;6.79;100.00
11114;BME280;5610;52.154;9.198;2024-02-26T06:45:18;99481.88;;;6.79;100.00
11114;BME280;5610;52.154;9.198;2024-02-26T06:48:05;99481.66;;;6.82;100.00
11114;BME280;5610;52.154;9.198;2024-02-26T06:50:51;99482.78;;;6.93;100.00
11114;BME280;5610;52.154;9.198;2024-02-26T06:53:36;99485.88;;;6.99;100.00
11114;BME280;5610;52.154;9.198;2024-02-26T06:56:22;99485.19;;;6.96;100.00
11114;BME280;5610;52.154;9.198;2024-02-26T06:59:07;99484.81;;;7.02;100.00
11114;BME280;5610;52.154;9.198;2024-02-26T07:01:52;99486.59;;;7.01;100.00
11114;BME280;5610;52.154;9.198;2024-02-26T07:04:39;99495.97;;;7.07;100.00
11114;BME280;5610;52.154;9.198;2024-02-26T07:07:25;99487.28;;;7.05;100.00
11114;BME280;5610;52.154;9.198;2024-02-26T07:10:10;99496.59;;;7.10;100.00
11114;BME280;5610;52.154;9.198;2024-02-26T07:12:56;99497.53;;;7.09;100.00
11114;BME280;5610;52.154;9.198;2024-02-26T07:15:41;99497.53;;;7.09;100.00
11114;BME280;5610;52.154;9.198;2024-02-26T07:18:26;99495.00;;;7.08;100.00
11114;BME280;5610;52.154;9.198;2024-02-26T07:21:13;99502.94;;;7.08;100.00
11114;BME280;5610;52.154;9.198;2024-02-26T07:23:58;99509.38;;;7.04;100.00
11114;BME280;5610;52.154;9.198;2024-02-26T07:26:43;99497.16;;;7.15;100.00
11114;BME280;5610;52.154;9.198;2024-02-26T07:29:29;99498.16;;;7.27;100.00
11114;BME280;5610;52.154;9.198;2024-02-26T07:32:14;99501.25;;;7.34;100.00
11114;BME280;5610;52.154;9.198;2024-02-26T07:34:59;99514.94;;;7.40;100.00
11114;BME280;5610;52.154;9.198;2024-02-26T07:37:47;99506.34;;;7.37;100.00
11114;BME280;5610;52.154;9.198;2024-02-26T07:40:33;99504.81;;;7.33;100.00
11114;BME280;5610;52.154;9.198;2024-02-26T07:43:18;99501.38;;;7.18;100.00
11114;BME280;5610;52.154;9.198;2024-02-26T07:46:03;99498.44;;;7.23;100.00
11114;BME280;5610;52.154;9.198;2024-02-26T07:48:48;99509.56;;;7.15;100.00
11114;BME280;5610;52.154;9.198;2024-02-26T07:51:34;99511.06;;;7.19;100.00
11114;BME280;5610;52.154;9.198;2024-02-26T07:54:21;99504.41;;;7.26;100.00
11114;BME280;5610;52.154;9.198;2024-02-26T07:57:06;99511.75;;;7.35;100.00
11114;BME280;5610;52.154;9.198;2024-02-26T07:59:52;99514.38;;;7.35;100.00
11114;BME280;5610;52.154;9.198;2024-02-26T08:02:36;99502.44;;;7.42;100.00
11114;BME280;5610;52.154;9.198;2024-02-26T08:05:21;99504.28;;;7.55;100.00
11114;BME280;5610;52.154;9.198;2024-02-26T08:08:07;99509.78;;;7.64;100.00
11114;BME280;5610;52.154;9.198;2024-02-26T08:10:53;99510.97;;;7.73;100.00
11114;BME280;5610;52.154;9.198;2024-02-26T08:13:38;99515.31;;;7.74;100.00
11114;BME280;5610;52.154;9.198;2024-02-26T08:16:23;99511.28;;;7.68;100.00
11114;BME280;5610;52.154;9.198;2024-02-26T08:19:08;99511.41;;;7.80;100.00
11114;BME280;5610;52.154;9.198;2024-02-26T08:21:55;99513.72;;;7.71;100.00
11114;BME280;5610;52.154;9.198;2024-02-26T08:24:40;99511.69;;;7.62;100.00
11114;BME280;5610;52.154;9.198;2024-02-26T08:27:26;99513.19;;;7.79;100.00
11114;BME280;5610;52.154;9.198;2024-02-26T08:30:13;99513.94;;;7.81;100.00
11114;BME280;5610;52.154;9.198;2024-02-26T08:33:02;99506.09;;;7.92;100.00
11114;BME280;5610;52.154;9.198;2024-02-26T08:35:47;99513.75;;;7.97;100.00
11114;BME280;5610;52.154;9.198;2024-02-26T08:38:32;99519.50;;;8.04;100.00
11114;BME280;5610;52.154;9.198;2024-02-26T08:41:18;99513.31;;;8.16;100.00
11114;BME280;5610;52.154;9.198;2024-02-26T08:44:05;99519.59;;;8.27;100.00
11114;BME280;5610;52.154;9.198;2024-02-26T08:46:50;99521.19;;;8.56;100.00
11114;BME280;5610;52.154;9.198;2024-02-26T08:49:36;99522.72;;;8.71;100.00
11114;BME280;5610;52.154;9.198;2024-02-26T08:52:21;99524.28;;;8.86;100.00
11114;BME280;5610;52.154;9.198;2024-02-26T08:55:07;99522.56;;;8.98;100.00
11114;BME280;5610;52.154;9.198;2024-02-26T08:57:53;99524.53;;;9.07;100.00
11114;BME280;5610;52.154;9.198;2024-02-26T09:00:40;99526.34;;;9.06;100.00
11114;BME280;5610;52.154;9.198;2024-02-26T09:03:25;99524.19;;;9.12;100.00
11114;BME280;5610;52.154;9.198;2024-02-26T09:06:10;99520.97;;;9.19;100.00
11114;BME280;5610;52.154;9.198;2024-02-26T09:08:56;99546.38;;;8.87;100.00
11114;BME280;5610;52.154;9.198;2024-02-26T09:11:41;99543.78;;;9.11;100.00
11114;BME280;5610;52.154;9.198;2024-02-26T09:14:26;99543.66;;;9.12;100.00
11114;BME280;5610;52.154;9.198;2024-02-26T09:17:12;99554.03;;;8.91;100.00
11114;BME280;5610;52.154;9.198;2024-02-26T09:19:58;99547.47;;;8.71;100.00
11114;BME280;5610;52.154;9.198;2024-02-26T09:22:44;99546.16;;;9.02;100.00
11114;BME280;5610;52.154;9.198;2024-02-26T09:25:29;99540.88;;;9.14;100.00
11114;BME280;5610;52.154;9.198;2024-02-26T09:28:14;99538.41;;;9.23;100.00
11114;BME280;5610;52.154;9.198;2024-02-26T09:31:00;99537.03;;;9.42;100.00
11114;BME280;5610;52.154;9.198;2024-02-26T09:33:47;99545.28;;;9.50;100.00
11114;BME280;5610;52.154;9.198;2024-02-26T09:36:32;99555.13;;;9.60;100.00
11114;BME280;5610;52.154;9.198;2024-02-26T09:39:17;99548.00;;;9.61;100.00
11114;BME280;5610;52.154;9.198;2024-02-26T09:42:05;99560.47;;;9.60;100.00
11114;BME280;5610;52.154;9.198;2024-02-26T09:44:54;99569.84;;;9.53;100.00
11114;BME280;5610;52.154;9.198;2024-02-26T09:47:40;99576.13;;;9.52;100.00
11114;BME280;5610;52.154;9.198;2024-02-26T09:50:27;99574.72;;;9.59;100.00
11114;BME280;5610;52.154;9.198;2024-02-26T09:53:12;99574.94;;;9.80;100.00
11114;BME280;5610;52.154;9.198;2024-02-26T09:55:58;99577.97;;;9.87;100.00
11114;BME280;5610;52.154;9.198;2024-02-26T09:58:44;99578.88;;;9.51;100.00
11114;BME280;5610;52.154;9.198;2024-02-26T10:01:33;99580.72;;;9.85;100.00
11114;BME280;5610;52.154;9.198;2024-02-26T10:04:19;99584.31;;;10.08;100.00
11114;BME280;5610;52.154;9.198;2024-02-26T10:07:10;99583.28;;;10.22;100.00
11114;BME280;5610;52.154;9.198;2024-02-26T10:09:55;99580.88;;;10.41;100.00
11114;BME280;5610;52.154;9.198;2024-02-26T10:12:40;99586.38;;;10.51;100.00
11114;BME280;5610;52.154;9.198;2024-02-26T10:15:26;99580.66;;;10.56;100.00
11114;BME280;5610;52.154;9.198;2024-02-26T10:18:11;99586.84;;;10.67;100.00
11114;BME280;5610;52.154;9.198;2024-02-26T10:21:00;99588.78;;;10.77;100.00
11114;BME280;5610;52.154;9.198;2024-02-26T10:23:47;99590.00;;;10.72;100.00
11114;BME280;5610;52.154;9.198;2024-02-26T10:26:34;99597.28;;;10.93;100.00
11114;BME280;5610;52.154;9.198;2024-02-26T10:29:19;99596.50;;;11.13;100.00
11114;BME280;5610;52.154;9.198;2024-02-26T10:32:05;99604.00;;;11.19;100.00
11114;BME280;5610;52.154;9.198;2024-02-26T10:34:55;99601.34;;;11.31;100.00
11114;BME280;5610;52.154;9.198;2024-02-26T10:37:40;99595.69;;;11.56;100.00
11114;BME280;5610;52.154;9.198;2024-02-26T10:40:27;99596.97;;;11.73;100.00
11114;BME280;5610;52.154;9.198;2024-02-26T10:43:12;99602.03;;;11.76;100.00
11114;BME280;5610;52.154;9.198;2024-02-26T10:45:58;99604.91;;;11.95;99.19
11114;BME280;5610;52.154;9.198;2024-02-26T10:48:49;99602.72;;;12.00;97.79
11114;BME280;5610;52.154;9.198;2024-02-26T10:51:37;99609.53;;;11.93;92.46
11114;BME280;5610;52.154;9.198;2024-02-26T10:54:25;99617.22;;;12.07;93.57
11114;BME280;5610;52.154;9.198;2024-02-26T10:57:14;99616.22;;;12.20;91.98
11114;BME280;5610;52.154;9.198;2024-02-26T11:00:01;99613.31;;;12.53;91.04
11114;BME280;5610;52.154;9.198;2024-02-26T11:02:48;99609.28;;;12.59;85.60
11114;BME280;5610;52.154;9.198;2024-02-26T11:05:33;99615.13;;;13.14;80.77
11114;BME280;5610;52.154;9.198;2024-02-26T11:08:20;99624.78;;;13.95;73.74
11114;BME280;5610;52.154;9.198;2024-02-26T11:11:06;99617.81;;;14.41;70.07
11114;BME280;5610;52.154;9.198;2024-02-26T11:13:53;99626.16;;;14.48;64.18
11114;BME280;5610;52.154;9.198;2024-02-26T11:16:39;99634.03;;;14.59;64.65
11114;BME280;5610;52.154;9.198;2024-02-26T11:19:27;99645.88;;;14.66;63.99
11114;BME280;5610;52.154;9.198;2024-02-26T11:22:12;99646.38;;;14.89;63.67
11114;BME280;5610;52.154;9.198;2024-02-26T11:24:58;99641.63;;;14.73;59.84
11114;BME280;5610;52.154;9.198;2024-02-26T11:27:49;99652.22;;;15.12;58.79
11114;BME280;5610;52.154;9.198;2024-02-26T11:30:39;99656.34;;;15.34;58.79
11114;BME280;5610;52.154;9.198;2024-02-26T11:33:25;99655.75;;;15.40;59.25
11114;BME280;5610;52.154;9.198;2024-02-26T11:36:11;99644.44;;;14.72;60.31
11114;BME280;5610;52.154;9.198;2024-02-26T11:38:58;99643.03;;;14.68;59.67
11114;BME280;5610;52.154;9.198;2024-02-26T11:41:43;99646.19;;;14.53;61.14
11114;BME280;5610;52.154;9.198;2024-02-26T11:44:29;99644.31;;;14.73;62.16
11114;BME280;5610;52.154;9.198;2024-02-26T11:47:18;99645.88;;;14.37;60.74
11114;BME280;5610;52.154;9.198;2024-02-26T11:53:26;99652.78;;;13.72;61.29
11114;BME280;5610;52.154;9.198;2024-02-26T11:56:20;99650.44;;;13.38;63.30
11114;BME280;5610;52.154;9.198;2024-02-26T11:59:10;99654.19;;;12.65;64.67
11114;BME280;5610;52.154;9.198;2024-02-26T12:01:57;99654.66;;;12.49;66.83
11114;BME280;5610;52.154;9.198;2024-02-26T12:04:43;99658.56;;;11.70;68.30
11114;BME280;5610;52.154;9.198;2024-02-26T12:07:29;99659.66;;;11.78;69.93
11114;BME280;5610;52.154;9.198;2024-02-26T12:10:17;99658.94;;;11.76;73.58
11114;BME280;5610;52.154;9.198;2024-02-26T12:13:11;99655.81;;;11.60;74.96
11114;BME280;5610;52.154;9.198;2024-02-26T12:15:58;99662.03;;;11.49;74.92
11114;BME280;5610;52.154;9.198;2024-02-26T12:18:44;99675.47;;;11.48;76.67
11114;BME280;5610;52.154;9.198;2024-02-26T12:21:31;99665.06;;;11.56;75.01
11114;BME280;5610;52.154;9.198;2024-02-26T12:24:18;99670.41;;;11.56;75.54
11114;BME280;5610;52.154;9.198;2024-02-26T12:27:03;99664.81;;;11.59;73.14
11114;BME280;5610;52.154;9.198;2024-02-26T12:29:50;99662.50;;;11.66;74.19
11114;BME280;5610;52.154;9.198;2024-02-26T12:32:35;99658.22;;;11.74;76.34
11114;BME280;5610;52.154;9.198;2024-02-26T12:35:20;99671.31;;;11.77;76.66
11114;BME280;5610;52.154;9.198;2024-02-26T12:38:07;99657.47;;;11.83;75.84
11114;BME280;5610;52.154;9.198;2024-02-26T12:40:53;99665.47;;;11.83;77.75
11114;BME280;5610;52.154;9.198;2024-02-26T12:43:38;99670.72;;;11.85;75.12
11114;BME280;5610;52.154;9.198;2024-02-26T12:46:23;99671.44;;;11.87;75.05
11114;BME280;5610;52.154;9.198;2024-02-26T12:49:08;99670.22;;;11.91;79.25
11114;BME280;5610;52.154;9.198;2024-02-26T12:51:59;99680.00;;;12.02;82.46
11114;BME280;5610;52.154;9.198;2024-02-26T12:54:47;99684.84;;;12.08;83.52
11114;BME280;5610;52.154;9.198;2024-02-26T12:57:33;99697.00;;;12.01;78.73
11114;BME280;5610;52.154;9.198;2024-02-26T13:00:21;99689.19;;;12.09;81.36
11114;BME280;5610;52.154;9.198;2024-02-26T13:03:07;99692.69;;;12.21;81.11
11114;BME280;5610;52.154;9.198;2024-02-26T13:05:53;99691.22;;;12.17;78.13
11114;BME280;5610;52.154;9.198;2024-02-26T13:08:38;99695.72;;;12.16;78.87
11114;BME280;5610;52.154;9.198;2024-02-26T13:11:26;99699.22;;;12.17;82.47
11114;BME280;5610;52.154;9.198;2024-02-26T13:14:19;99691.59;;;12.12;81.27
11114;BME280;5610;52.154;9.198;2024-02-26T13:17:04;99692.97;;;12.06;83.08
11114;BME280;5610;52.154;9.198;2024-02-26T13:19:49;99698.69;;;12.02;82.64
11114;BME280;5610;52.154;9.198;2024-02-26T13:22:35;99705.50;;;11.95;83.27
11114;BME280;5610;52.154;9.198;2024-02-26T13:25:21;99705.03;;;11.90;84.22
11114;BME280;5610;52.154;9.198;2024-02-26T13:28:08;99709.78;;;11.86;90.56
11114;BME280;5610;52.154;9.198;2024-02-26T13:30:56;99699.84;;;11.77;89.83
11114;BME280;5610;52.154;9.198;2024-02-26T13:33:41;99712.91;;;11.80;90.68
11114;BME280;5610;52.154;9.198;2024-02-26T13:36:26;99715.47;;;11.81;94.19
11114;BME280;5610;52.154;9.198;2024-02-26T13:39:21;99717.31;;;11.81;93.80
11114;BME280;5610;52.154;9.198;2024-02-26T13:42:08;99715.09;;;11.75;97.34
11114;BME280;5610;52.154;9.198;2024-02-26T13:44:57;99720.47;;;11.64;97.89
11114;BME280;5610;52.154;9.198;2024-02-26T13:47:42;99732.97;;;11.63;100.00
11114;BME280;5610;52.154;9.198;2024-02-26T13:50:28;99730.53;;;11.60;100.00
11114;BME280;5610;52.154;9.198;2024-02-26T13:53:13;99740.47;;;11.58;100.00
11114;BME280;5610;52.154;9.198;2024-02-26T13:55:59;99741.34;;;11.59;100.00
11114;BME280;5610;52.154;9.198;2024-02-26T13:58:45;99744.97;;;11.58;100.00
11114;BME280;5610;52.154;9.198;2024-02-26T14:01:32;99741.94;;;11.51;100.00
11114;BME280;5610;52.154;9.198;2024-02-26T14:04:18;99745.59;;;11.50;100.00
11114;BME280;5610;52.154;9.198;2024-02-26T14:07:03;99745.81;;;11.47;100.00
11114;BME280;5610;52.154;9.198;2024-02-26T14:09:49;99755.41;;;11.49;100.00
11114;BME280;5610;52.154;9.198;2024-02-26T14:12:35;99755.78;;;11.56;100.00
11114;BME280;5610;52.154;9.198;2024-02-26T14:15:21;99755.88;;;11.66;100.00
11114;BME280;5610;52.154;9.198;2024-02-26T14:18:07;99748.09;;;11.74;100.00
11114;BME280;5610;52.154;9.198;2024-02-26T14:20:52;99760.22;;;11.89;100.00
11114;BME280;5610;52.154;9.198;2024-02-26T14:23:38;99762.53;;;11.94;100.00
11114;BME280;5610;52.154;9.198;2024-02-26T14:26:24;99778.06;;;12.00;99.56
11114;BME280;5610;52.154;9.198;2024-02-26T14:29:09;99784.84;;;12.04;97.47
11114;BME280;5610;52.154;9.198;2024-02-26T14:31:54;99788.63;;;12.01;97.73
11114;BME280;5610;52.154;9.198;2024-02-26T14:34:41;99775.88;;;11.94;96.09
11114;BME280;5610;52.154;9.198;2024-02-26T14:37:27;99784.25;;;11.89;96.51
11114;BME280;5610;52.154;9.198;2024-02-26T14:40:12;99776.88;;;11.81;96.62
11114;BME280;5610;52.154;9.198;2024-02-26T14:42:57;99778.31;;;11.74;93.78
11114;BME280;5610;52.154;9.198;2024-02-26T14:45:43;99788.50;;;11.69;94.04
11114;BME280;5610;52.154;9.198;2024-02-26T14:48:29;99793.47;;;11.63;93.83
11114;BME280;5610;52.154;9.198;2024-02-26T14:51:16;99789.84;;;11.64;96.01
11114;BME280;5610;52.154;9.198;2024-02-26T14:54:01;99803.41;;;11.61;99.59